Time;durP1;ratioP1;P1;durP2;ratioP2;P2;SDS_P1;SDS_P2;PMS_P1;PMS_P2;Temp;Humidity;BMP_temperature;BMP_pressure;BME280_temperature;BME280_humidity;BME280_pressure;Samples;Min_cycle;Max_cycle;Signal;HPM_P1;HPM_P2
2021/09/24 00:02:12;;;;;;;10.13;2.20;;;17.00;99.90;;;;;;5027146;28;20194;-84
2021/09/24 00:04:39;;;;;;;6.32;2.28;;;17.00;99.90;;;;;;5028520;28;20225;-85
2021/09/24 00:07:08;;;;;;;8.10;2.50;;;17.00;99.90;;;;;;5028506;28;20242;-84
2021/09/24 00:09:35;;;;;;;8.85;2.30;;;17.00;99.90;;;;;;5040154;28;20297;-85
2021/09/24 00:12:02;;;;;;;9.07;2.25;;;17.00;99.90;;;;;;5049693;28;20213;-86
2021/09/24 00:14:29;;;;;;;5.50;2.50;;;17.00;99.90;;;;;;5049229;28;20216;-86
2021/09/24 00:16:55;;;;;;;7.90;3.15;;;17.10;99.90;;;;;;5049110;28;20598;-88
2021/09/24 00:19:22;;;;;;;4.32;1.60;;;17.10;99.90;;;;;;5048353;28;20202;-84
2021/09/24 00:21:49;;;;;;;7.57;2.22;;;17.10;99.90;;;;;;5049273;28;20201;-83
2021/09/24 00:24:17;;;;;;;7.35;1.92;;;17.10;99.90;;;;;;5049163;28;20229;-84
2021/09/24 00:26:44;;;;;;;4.25;1.80;;;17.10;99.90;;;;;;5051179;28;20202;-85
2021/09/24 00:29:11;;;;;;;9.60;1.80;;;17.10;99.90;;;;;;5050888;28;20351;-85
2021/09/24 00:31:37;;;;;;;8.43;2.00;;;17.10;99.90;;;;;;5037669;28;20222;-83
2021/09/24 00:34:04;;;;;;;7.57;2.22;;;17.10;99.90;;;;;;5030086;28;20198;-84
2021/09/24 00:36:31;;;;;;;13.52;2.55;;;17.10;99.90;;;;;;5029224;28;20942;-82
2021/09/24 00:38:58;;;;;;;7.53;2.13;;;17.20;99.90;;;;;;5030241;28;20329;-84
2021/09/24 00:41:26;;;;;;;6.22;2.20;;;17.20;99.90;;;;;;5039572;28;20206;-85
2021/09/24 00:43:53;;;;;;;6.30;2.22;;;17.20;99.90;;;;;;5049299;28;20225;-85
2021/09/24 00:46:20;;;;;;;7.20;2.15;;;17.20;99.90;;;;;;5050297;28;20252;-84
2021/09/24 00:48:47;;;;;;;6.32;2.17;;;17.20;99.90;;;;;;5050797;28;20713;-83
2021/09/24 00:51:14;;;;;;;5.80;1.83;;;17.20;99.90;;;;;;5048093;28;20959;-83
2021/09/24 00:53:41;;;;;;;7.13;2.28;;;17.10;99.90;;;;;;5066926;28;20213;-83
2021/09/24 00:56:09;;;;;;;6.15;2.28;;;17.20;99.90;;;;;;5070863;28;20194;-84
2021/09/24 00:58:38;;;;;;;5.85;2.00;;;17.20;99.90;;;;;;5057080;28;20202;-85
2021/09/24 01:01:05;;;;;;;7.55;1.83;;;17.10;99.90;;;;;;5029169;28;20214;-84
2021/09/24 01:03:32;;;;;;;6.32;2.25;;;17.20;99.90;;;;;;5029243;28;20233;-84
2021/09/24 01:05:58;;;;;;;5.57;2.20;;;17.20;99.90;;;;;;5029328;28;20610;-84
2021/09/24 01:08:26;;;;;;;6.28;1.70;;;17.20;99.90;;;;;;5029033;28;20206;-86
2021/09/24 01:10:53;;;;;;;5.50;2.10;;;17.20;99.90;;;;;;5030107;28;20207;-84
2021/09/24 01:13:19;;;;;;;7.40;2.03;;;17.20;99.90;;;;;;5056385;28;20229;-86
2021/09/24 01:15:48;;;;;;;7.63;2.22;;;17.20;99.90;;;;;;5068432;28;20204;-84
2021/09/24 01:18:15;;;;;;;6.03;1.90;;;17.20;99.90;;;;;;5068226;28;20213;-81
2021/09/24 01:20:42;;;;;;;6.82;2.60;;;17.20;99.90;;;;;;5068909;28;20208;-85
2021/09/24 01:23:10;;;;;;;4.97;1.92;;;17.20;99.90;;;;;;5068797;28;20610;-86
2021/09/24 01:25:37;;;;;;;7.28;2.13;;;17.20;99.90;;;;;;5050253;28;20218;-85
2021/09/24 01:28:04;;;;;;;3.88;1.73;;;17.20;99.90;;;;;;5028388;28;20206;-85
2021/09/24 01:30:31;;;;;;;7.53;2.22;;;17.20;99.90;;;;;;5028640;28;20198;-86
2021/09/24 01:32:58;;;;;;;6.20;1.88;;;17.20;99.90;;;;;;5028570;28;20195;-85
2021/09/24 01:35:25;;;;;;;7.35;2.45;;;17.20;99.90;;;;;;5028534;28;20213;-83
2021/09/24 01:37:51;;;;;;;9.45;2.90;;;17.20;99.90;;;;;;5027623;28;20249;-84
2021/09/24 01:40:20;;;;;;;4.43;1.90;;;17.20;99.90;;;;;;5027404;28;20207;-83
2021/09/24 01:42:52;;;;;;;6.65;2.20;;;17.20;99.90;;;;;;5034887;28;20205;-84
2021/09/24 01:45:19;;;;;;;11.57;2.40;;;17.20;99.90;;;;;;5049005;28;20325;-85
2021/09/24 01:47:46;;;;;;;4.35;1.58;;;17.20;99.90;;;;;;5044138;22;20685;-84
2021/09/24 01:50:14;;;;;;;8.85;2.38;;;17.20;99.90;;;;;;5033261;28;20218;-84
2021/09/24 01:52:41;;;;;;;7.18;2.65;;;17.20;99.90;;;;;;5028113;28;20210;-84
2021/09/24 01:55:10;;;;;;;8.10;2.10;;;17.30;99.90;;;;;;5029091;28;20219;-88
2021/09/24 01:57:38;;;;;;;4.10;1.85;;;17.20;99.90;;;;;;5029083;28;20199;-80
2021/09/24 02:00:07;;;;;;;5.28;2.33;;;17.20;99.90;;;;;;5029204;28;20209;-83
2021/09/24 02:02:34;;;;;;;8.65;2.67;;;17.20;99.90;;;;;;5046335;28;20271;-82
2021/09/24 02:05:00;;;;;;;6.22;2.42;;;17.20;99.90;;;;;;5050047;28;20198;-82
2021/09/24 02:07:27;;;;;;;9.02;2.50;;;17.30;99.90;;;;;;5048049;28;20194;-84
2021/09/24 02:09:54;;;;;;;9.20;2.67;;;17.30;99.90;;;;;;5031002;28;20222;-84
2021/09/24 02:12:21;;;;;;;8.48;2.38;;;17.30;99.90;;;;;;5029063;28;20229;-86
2021/09/24 02:14:49;;;;;;;6.90;1.98;;;17.30;99.90;;;;;;5028746;28;20202;-82
2021/09/24 02:17:16;;;;;;;5.95;2.03;;;17.30;99.90;;;;;;5029768;28;20225;-85
2021/09/24 02:19:43;;;;;;;5.75;2.30;;;17.30;99.90;;;;;;5028613;28;20291;-84
2021/09/24 02:22:09;;;;;;;5.20;2.10;;;17.30;99.90;;;;;;5058688;28;20201;-83
2021/09/24 02:24:36;;;;;;;6.00;2.67;;;17.30;99.90;;;;;;5069218;28;20221;-86
2021/09/24 02:27:03;;;;;;;5.07;2.00;;;17.30;99.90;;;;;;5072247;28;20209;-84
2021/09/24 02:29:30;;;;;;;3.97;1.58;;;17.30;99.90;;;;;;5060017;28;20217;-84
2021/09/24 02:31:58;;;;;;;3.50;1.60;;;17.30;99.90;;;;;;5054583;28;20215;-84
2021/09/24 02:34:25;;;;;;;5.85;2.00;;;17.30;99.90;;;;;;5061561;28;20212;-84
2021/09/24 02:36:52;;;;;;;6.85;2.15;;;17.30;99.90;;;;;;5062347;28;20205;-84
2021/09/24 02:39:19;;;;;;;9.57;2.47;;;17.30;99.90;;;;;;5061787;28;20218;-83
2021/09/24 02:41:46;;;;;;;7.57;1.98;;;17.30;99.90;;;;;;5056446;28;20190;-82
2021/09/24 02:44:13;;;;;;;7.72;2.30;;;17.20;99.90;;;;;;5032895;28;20229;-83
2021/09/24 02:46:40;;;;;;;9.40;2.63;;;17.30;99.90;;;;;;5032279;28;20290;-85
2021/09/24 02:49:08;;;;;;;10.02;2.20;;;17.30;99.90;;;;;;5032260;28;20194;-85
2021/09/24 02:51:35;;;;;;;8.15;2.22;;;17.30;99.90;;;;;;5038377;28;20285;-84
2021/09/24 02:54:02;;;;;;;7.70;2.03;;;17.30;99.90;;;;;;5044217;28;20221;-85
2021/09/24 02:56:29;;;;;;;6.68;2.67;;;17.30;99.90;;;;;;5031582;28;20252;-81
2021/09/24 02:58:56;;;;;;;7.40;2.58;;;17.30;99.90;;;;;;5032636;28;20195;-85
2021/09/24 03:01:22;;;;;;;6.07;2.42;;;17.30;99.90;;;;;;5031407;28;20205;-83
2021/09/24 03:03:49;;;;;;;9.70;3.10;;;17.30;99.90;;;;;;5049393;28;20221;-86
2021/09/24 03:06:18;;;;;;;6.50;2.53;;;17.30;99.90;;;;;;5051384;28;20625;-81
2021/09/24 03:08:45;;;;;;;8.52;2.60;;;17.30;99.90;;;;;;5051311;28;20221;-83
2021/09/24 03:11:12;;;;;;;5.50;2.58;;;17.30;99.90;;;;;;5051289;28;20220;-84
2021/09/24 03:13:39;;;;;;;8.85;2.92;;;17.30;99.90;;;;;;5044695;28;20305;-85
2021/09/24 03:16:05;;;;;;;6.88;2.35;;;17.30;99.90;;;;;;5032165;28;20206;-84
2021/09/24 03:18:32;;;;;;;5.63;2.78;;;17.30;99.90;;;;;;5031198;28;20588;-84
2021/09/24 03:20:59;;;;;;;8.40;2.90;;;17.30;99.90;;;;;;5033160;28;20217;-83
2021/09/24 03:23:27;;;;;;;8.05;2.83;;;17.30;99.90;;;;;;5031049;28;20660;-84
2021/09/24 03:25:54;;;;;;;6.47;2.20;;;17.30;99.90;;;;;;5030750;28;20291;-84
2021/09/24 03:28:21;;;;;;;4.07;2.05;;;17.40;99.90;;;;;;5030784;28;20205;-85
2021/09/24 03:30:49;;;;;;;4.30;1.75;;;17.40;99.90;;;;;;5032323;28;20210;-85
2021/09/24 03:33:16;;;;;;;7.00;2.55;;;17.40;99.90;;;;;;5031020;28;20207;-81
2021/09/24 03:35:43;;;;;;;6.25;2.28;;;17.40;99.90;;;;;;5030482;28;20202;-83
2021/09/24 03:38:10;;;;;;;6.68;2.80;;;17.30;99.90;;;;;;5029672;28;20199;-84
2021/09/24 03:40:38;;;;;;;10.82;3.00;;;17.40;99.90;;;;;;5030402;28;20202;-87
2021/09/24 03:43:05;;;;;;;9.80;3.15;;;17.40;99.90;;;;;;5031298;28;20210;-84
2021/09/24 03:45:32;;;;;;;5.05;2.67;;;17.40;99.90;;;;;;5031193;28;20202;-83
2021/09/24 03:47:58;;;;;;;7.55;3.65;;;17.40;99.90;;;;;;5031442;28;20265;-83
2021/09/24 03:50:25;;;;;;;7.05;3.22;;;17.40;99.90;;;;;;5030689;28;20997;-84
2021/09/24 03:52:53;;;;;;;5.38;2.25;;;17.40;99.90;;;;;;5031017;28;20660;-85
2021/09/24 03:55:20;;;;;;;6.88;2.30;;;17.40;99.90;;;;;;5031071;28;20199;-83
2021/09/24 03:57:49;;;;;;;5.22;2.55;;;17.30;99.90;;;;;;5054744;28;20235;-84
2021/09/24 04:00:16;;;;;;;5.47;2.30;;;17.40;99.90;;;;;;5070074;28;20193;-84
2021/09/24 04:02:43;;;;;;;6.95;2.22;;;17.40;99.90;;;;;;5030672;28;20224;-84
2021/09/24 04:05:11;;;;;;;4.82;1.75;;;17.40;99.90;;;;;;5030141;28;20226;-85
2021/09/24 04:07:38;;;;;;;6.70;2.03;;;17.40;99.90;;;;;;5030358;28;20197;-82
2021/09/24 04:10:05;;;;;;;5.35;1.90;;;17.40;99.90;;;;;;5030852;28;20207;-86
2021/09/24 04:12:32;;;;;;;5.35;1.90;;;17.40;99.90;;;;;;5030034;28;20218;-84
2021/09/24 04:15:01;;;;;;;5.65;1.92;;;17.40;99.90;;;;;;5046193;28;20206;-84
2021/09/24 04:17:28;;;;;;;8.07;2.35;;;17.50;99.90;;;;;;5050072;28;20899;-84
2021/09/24 04:19:55;;;;;;;5.57;2.08;;;17.50;99.90;;;;;;5050432;28;20198;-81
2021/09/24 04:22:22;;;;;;;4.05;1.95;;;17.40;99.90;;;;;;5034797;28;20210;-84
2021/09/24 04:24:48;;;;;;;3.25;1.45;;;17.40;99.90;;;;;;5031055;28;20227;-85
2021/09/24 04:27:15;;;;;;;5.65;1.65;;;17.40;99.90;;;;;;5030266;28;20201;-85
2021/09/24 04:29:42;;;;;;;6.30;1.90;;;17.40;99.90;;;;;;5031015;28;20211;-83
2021/09/24 04:32:10;;;;;;;6.68;1.88;;;17.40;99.90;;;;;;5049451;28;20198;-88
2021/09/24 04:34:37;;;;;;;6.80;2.08;;;17.50;99.90;;;;;;5068245;28;20209;-85
2021/09/24 04:37:04;;;;;;;5.90;2.17;;;17.40;99.90;;;;;;5069231;28;20197;-83
2021/09/24 04:39:31;;;;;;;6.15;2.40;;;17.40;99.90;;;;;;5044510;28;20202;-85
2021/09/24 04:41:58;;;;;;;9.77;2.88;;;17.40;99.90;;;;;;5038987;28;20863;-83
2021/09/24 04:44:25;;;;;;;7.80;3.10;;;17.40;99.90;;;;;;5069816;28;20240;-84
2021/09/24 04:46:51;;;;;;;7.80;2.60;;;17.40;99.90;;;;;;5056532;28;20202;-83
2021/09/24 04:49:20;;;;;;;5.75;2.47;;;17.30;99.90;;;;;;5029170;28;20198;-84
2021/09/24 04:51:47;;;;;;;6.32;2.70;;;17.30;99.90;;;;;;5056835;28;20769;-84
2021/09/24 04:54:14;;;;;;;10.02;2.72;;;17.20;99.90;;;;;;5069386;28;20212;-85
2021/09/24 04:56:40;;;;;;;5.00;2.17;;;17.20;99.90;;;;;;5069334;28;20199;-84
2021/09/24 04:59:07;;;;;;;5.15;2.35;;;17.30;99.90;;;;;;5068952;28;20220;-84
2021/09/24 05:01:34;;;;;;;6.93;2.13;;;17.20;99.90;;;;;;5070105;28;20216;-85
2021/09/24 05:04:02;;;;;;;5.75;2.20;;;17.20;99.90;;;;;;5063671;28;20556;-83
2021/09/24 05:06:30;;;;;;;6.40;2.50;;;17.20;99.90;;;;;;5048312;28;20301;-83
2021/09/24 05:08:57;;;;;;;5.55;2.30;;;17.10;99.90;;;;;;5047298;28;20202;-83
2021/09/24 05:11:24;;;;;;;5.18;2.00;;;17.10;99.90;;;;;;5047282;28;20202;-85
2021/09/24 05:13:51;;;;;;;4.72;2.00;;;17.10;99.90;;;;;;5048199;28;20229;-83
2021/09/24 05:16:18;;;;;;;8.35;2.00;;;17.00;99.90;;;;;;5066550;28;20197;-81
2021/09/24 05:18:45;;;;;;;5.72;2.05;;;17.00;99.90;;;;;;5058218;28;20211;-83
2021/09/24 05:21:12;;;;;;;4.78;1.98;;;17.00;99.90;;;;;;5028227;28;20206;-86
2021/09/24 05:23:40;;;;;;;6.47;2.47;;;16.90;99.90;;;;;;5027842;28;20206;-85
2021/09/24 05:26:07;;;;;;;7.05;2.17;;;16.90;99.90;;;;;;5027747;28;20198;-83
2021/09/24 05:28:34;;;;;;;6.00;1.77;;;16.80;99.90;;;;;;5033553;28;20213;-82
2021/09/24 05:31:01;;;;;;;3.37;1.60;;;16.80;99.90;;;;;;5049154;28;20205;-84
2021/09/24 05:33:28;;;;;;;6.10;2.13;;;16.80;99.90;;;;;;5047123;28;20202;-81
2021/09/24 05:35:55;;;;;;;3.17;1.63;;;16.70;99.90;;;;;;5047332;28;20212;-84
2021/09/24 05:38:22;;;;;;;5.40;2.70;;;16.70;99.90;;;;;;5064175;28;20212;-87
2021/09/24 05:40:50;;;;;;;4.75;1.77;;;16.70;99.90;;;;;;5068033;28;20204;-84
2021/09/24 05:43:17;;;;;;;6.00;1.85;;;16.60;99.90;;;;;;5065679;28;20620;-83
2021/09/24 05:45:44;;;;;;;5.15;1.80;;;16.60;99.90;;;;;;5066088;28;20239;-84
2021/09/24 05:48:11;;;;;;;6.40;2.47;;;16.60;99.90;;;;;;5066837;28;20240;-82
2021/09/24 05:50:38;;;;;;;7.15;2.17;;;16.50;99.90;;;;;;5066547;28;20212;-83
2021/09/24 05:53:04;;;;;;;8.52;2.70;;;16.50;99.90;;;;;;5061076;28;20221;-84
2021/09/24 05:55:31;;;;;;;12.30;3.05;;;16.50;99.90;;;;;;5046265;28;20194;-85
2021/09/24 05:58:00;;;;;;;6.97;3.00;;;16.50;99.90;;;;;;5047556;28;20213;-81
2021/09/24 06:00:26;;;;;;;5.57;2.63;;;16.50;99.90;;;;;;5046339;28;20202;-83
2021/09/24 06:02:53;;;;;;;5.82;2.40;;;16.60;99.90;;;;;;5047440;28;20194;-82
2021/09/24 06:05:20;;;;;;;11.02;2.88;;;16.60;99.90;;;;;;5036691;28;20234;-84
2021/09/24 06:07:48;;;;;;;6.45;2.53;;;16.60;99.90;;;;;;5018815;28;20206;-81
2021/09/24 06:10:16;;;;;;;11.38;3.38;;;16.60;99.90;;;;;;5043352;28;20264;-83
2021/09/24 06:12:44;;;;;;;12.30;3.60;;;16.60;99.90;;;;;;5046241;28;20787;-82
2021/09/24 06:15:15;;;;;;;12.88;3.97;;;16.60;99.90;;;;;;5045862;28;20284;-82
2021/09/24 06:17:42;;;;;;;11.70;3.35;;;16.60;99.90;;;;;;5046106;28;20208;-82
2021/09/24 06:20:10;;;;;;;12.68;3.58;;;16.70;99.90;;;;;;5046632;28;20214;-82
2021/09/24 06:22:37;;;;;;;8.90;3.25;;;16.60;99.90;;;;;;5042956;28;20860;-86
2021/09/24 06:25:05;;;;;;;9.73;3.53;;;16.70;99.90;;;;;;5030026;28;20226;-85
2021/09/24 06:27:32;;;;;;;12.35;3.53;;;16.70;99.90;;;;;;5026982;28;20197;-82
2021/09/24 06:29:59;;;;;;;11.80;3.83;;;16.70;99.90;;;;;;5043440;28;20205;-83
2021/09/24 06:32:27;;;;;;;12.75;3.35;;;16.70;99.90;;;;;;5045717;28;20263;-84
2021/09/24 06:34:54;;;;;;;10.23;3.47;;;16.80;99.90;;;;;;5045642;28;20210;-82
2021/09/24 06:37:21;;;;;;;7.85;3.33;;;16.80;99.90;;;;;;5046054;28;20190;-84
2021/09/24 06:39:49;;;;;;;9.20;2.88;;;16.80;99.90;;;;;;5045511;28;20293;-85
2021/09/24 06:42:15;;;;;;;13.50;2.85;;;16.90;99.90;;;;;;5048134;28;20225;-84
2021/09/24 06:44:43;;;;;;;5.38;2.88;;;16.90;99.90;;;;;;5046455;28;20226;-83
2021/09/24 06:47:11;;;;;;;8.15;3.03;;;16.90;99.90;;;;;;5046961;28;20240;-85
2021/09/24 06:49:39;;;;;;;8.27;3.22;;;17.00;99.90;;;;;;5046557;28;20214;-82
2021/09/24 06:52:07;;;;;;;9.75;3.17;;;17.10;99.90;;;;;;5046104;28;20205;-82
2021/09/24 06:54:34;;;;;;;7.40;3.28;;;17.20;99.90;;;;;;5044640;28;20206;-84
2021/09/24 06:57:02;;;;;;;6.97;3.50;;;17.40;99.90;;;;;;5045092;28;20233;-84
2021/09/24 06:59:29;;;;;;;13.48;4.13;;;17.50;99.90;;;;;;5045249;28;20289;-82
2021/09/24 07:01:56;;;;;;;8.77;2.42;;;17.60;99.90;;;;;;5033669;28;20449;-83
2021/09/24 07:04:23;;;;;;;9.43;2.28;;;17.70;99.90;;;;;;5027081;28;20214;-87
2021/09/24 07:06:51;;;;;;;9.32;2.80;;;17.80;99.90;;;;;;5026742;28;20213;-83
2021/09/24 07:09:18;;;;;;;8.27;3.10;;;17.80;99.90;;;;;;5063055;28;20779;-83
2021/09/24 07:11:48;;;;;;;6.80;2.58;;;17.90;99.90;;;;;;5066015;28;20209;-85
2021/09/24 07:14:15;;;;;;;8.68;2.60;;;18.00;99.90;;;;;;5052942;28;20214;-83
2021/09/24 07:16:42;;;;;;;10.07;2.55;;;18.00;99.90;;;;;;5050110;28;20208;-82
2021/09/24 07:19:09;;;;;;;6.22;2.58;;;18.00;99.90;;;;;;5049981;28;20268;-84
2021/09/24 07:21:36;;;;;;;11.10;2.92;;;18.10;99.90;;;;;;5048889;28;20574;-81
2021/09/24 07:24:05;;;;;;;5.10;3.03;;;18.10;99.90;;;;;;5029420;28;20221;-84
2021/09/24 07:26:33;;;;;;;9.32;2.90;;;18.20;99.90;;;;;;5030389;28;20237;-86
2021/09/24 07:29:01;;;;;;;7.50;2.45;;;18.20;99.90;;;;;;5031189;28;20205;-82
2021/09/24 07:31:28;;;;;;;7.30;2.67;;;18.20;99.90;;;;;;5031089;28;20210;-83
2021/09/24 07:33:55;;;;;;;8.52;3.03;;;18.30;99.90;;;;;;5069290;28;20224;-84
2021/09/24 07:36:23;;;;;;;6.55;2.25;;;18.30;99.90;;;;;;5068683;28;20271;-84
2021/09/24 07:38:51;;;;;;;5.95;2.83;;;18.40;99.90;;;;;;5061121;28;20216;-83
2021/09/24 07:41:20;;;;;;;8.48;2.90;;;18.50;99.90;;;;;;5067389;28;20209;-83
2021/09/24 07:43:49;;;;;;;5.47;2.75;;;18.50;99.90;;;;;;5068386;28;20514;-85
2021/09/24 07:46:16;;;;;;;8.40;2.78;;;18.50;99.90;;;;;;5067198;28;20241;-86
2021/09/24 07:48:44;;;;;;;6.55;2.30;;;18.60;99.90;;;;;;5067354;28;20264;-85
2021/09/24 07:51:12;;;;;;;5.93;2.72;;;18.60;99.90;;;;;;5050706;28;20227;-85
2021/09/24 07:53:39;;;;;;;7.30;3.00;;;18.70;99.90;;;;;;5049764;28;20194;-84
2021/09/24 07:56:07;;;;;;;6.13;2.30;;;18.70;99.90;;;;;;5048482;28;20202;-83
2021/09/24 07:58:38;;;;;;;7.38;2.28;;;18.70;99.90;;;;;;5028529;28;20615;-81
2021/09/24 08:01:05;;;;;;;10.55;2.85;;;18.80;99.90;;;;;;5041232;28;20236;-81
2021/09/24 08:03:32;;;;;;;7.72;3.17;;;18.80;99.90;;;;;;5048485;28;20590;-85
2021/09/24 08:05:59;;;;;;;9.93;2.92;;;18.80;99.90;;;;;;5028564;28;20542;-83
2021/09/24 08:08:25;;;;;;;8.57;2.80;;;18.90;99.90;;;;;;5027677;28;20199;-83
2021/09/24 08:10:53;;;;;;;6.13;2.70;;;18.90;99.90;;;;;;5028775;28;20199;-82
2021/09/24 08:13:20;;;;;;;5.03;2.55;;;18.90;99.90;;;;;;5029841;28;20452;-85
2021/09/24 08:15:48;;;;;;;7.15;2.65;;;18.90;99.90;;;;;;5028695;28;20527;-83
2021/09/24 08:18:16;;;;;;;7.18;2.80;;;18.90;99.90;;;;;;5043454;28;20213;-80
2021/09/24 08:20:45;;;;;;;6.38;2.50;;;19.00;99.90;;;;;;5047041;28;20464;-83
2021/09/24 08:23:12;;;;;;;9.07;2.80;;;19.00;99.90;;;;;;5047674;28;20232;-84
2021/09/24 08:25:39;;;;;;;8.15;4.03;;;19.00;99.90;;;;;;5047315;28;20222;-82
2021/09/24 08:28:06;;;;;;;9.43;3.67;;;19.00;99.90;;;;;;5027855;28;20194;-84
2021/09/24 08:30:34;;;;;;;10.10;2.80;;;19.10;99.90;;;;;;5028096;28;20211;-81
2021/09/24 08:33:02;;;;;;;9.05;2.63;;;19.10;99.90;;;;;;5028948;28;20595;-83
2021/09/24 08:35:29;;;;;;;7.88;3.10;;;19.10;99.90;;;;;;5028149;28;20207;-84
2021/09/24 08:37:57;;;;;;;10.13;2.80;;;19.20;99.90;;;;;;5028487;28;20206;-84
2021/09/24 08:40:27;;;;;;;6.95;2.90;;;19.30;99.90;;;;;;5034028;28;20475;-83
2021/09/24 08:42:54;;;;;;;7.40;2.78;;;19.40;99.90;;;;;;5036890;28;20289;-85
2021/09/24 08:45:27;;;;;;;8.57;3.13;;;19.50;99.90;;;;;;5028790;28;20322;-83
2021/09/24 08:47:55;;;;;;;5.95;3.13;;;19.50;99.90;;;;;;5028849;28;20344;-85
2021/09/24 08:50:24;;;;;;;8.80;3.13;;;19.60;99.90;;;;;;5028343;28;20215;-80
2021/09/24 08:52:52;;;;;;;5.90;2.20;;;19.70;99.90;;;;;;5027714;28;20203;-81
2021/09/24 08:55:19;;;;;;;8.82;2.28;;;19.80;99.90;;;;;;5028081;28;20209;-85
2021/09/24 08:57:47;;;;;;;6.50;2.47;;;19.90;99.90;;;;;;5033906;28;20202;-82
2021/09/24 09:00:15;;;;;;;4.55;2.30;;;20.00;99.90;;;;;;5048918;28;20602;-83
2021/09/24 09:02:57;;;;;;;6.60;2.45;;;20.10;99.90;;;;;;5033928;28;20250;-86
2021/09/24 09:05:26;;;;;;;7.20;2.20;;;20.10;99.90;;;;;;5027160;28;20226;-85
2021/09/24 09:08:06;;;;;;;6.35;2.13;;;20.20;99.90;;;;;;5027380;28;20199;-82
2021/09/24 09:10:39;;;;;;;5.80;2.55;;;20.30;99.90;;;;;;5026516;28;20658;-84
2021/09/24 09:13:08;;;;;;;6.20;2.20;;;20.50;99.90;;;;;;5027931;28;20801;-81
2021/09/24 09:15:35;;;;;;;4.40;2.10;;;20.70;99.90;;;;;;5027947;28;20256;-83
2021/09/24 09:18:02;;;;;;;13.02;2.80;;;20.80;99.90;;;;;;5027500;28;20438;-84
2021/09/24 09:20:31;;;;;;;9.10;3.13;;;20.80;99.90;;;;;;5029440;28;20214;-86
2021/09/24 09:23:11;;;;;;;6.47;2.95;;;20.80;99.90;;;;;;5047429;28;20605;-82
2021/09/24 09:25:41;;;;;;;4.97;2.70;;;20.90;99.90;;;;;;5046947;28;20253;-84
2021/09/24 09:28:14;;;;;;;7.93;2.72;;;21.00;99.90;;;;;;5048120;28;20206;-83
2021/09/24 09:30:43;;;;;;;11.43;2.80;;;21.00;99.90;;;;;;5047761;28;20373;-85
2021/09/24 09:33:15;;;;;;;7.43;2.25;;;21.20;99.90;;;;;;5047487;28;20210;-84
2021/09/24 09:35:45;;;;;;;9.00;2.35;;;21.30;99.90;;;;;;5046667;28;20190;-81
2021/09/24 09:38:25;;;;;;;10.45;2.63;;;21.40;99.90;;;;;;5040417;28;20207;-85
2021/09/24 09:40:56;;;;;;;7.95;2.70;;;21.60;99.90;;;;;;5027003;28;20209;-84
2021/09/24 09:43:27;;;;;;;7.93;2.50;;;21.70;99.90;;;;;;5027244;28;20201;-86
2021/09/24 09:45:54;;;;;;;9.73;2.13;;;21.90;99.90;;;;;;5026806;28;20224;-82
2021/09/24 09:48:20;;;;;;;4.35;2.03;;;22.00;99.90;;;;;;5038946;28;20244;-83
2021/09/24 09:50:49;;;;;;;6.32;2.40;;;22.10;99.90;;;;;;5046870;28;20210;-84
2021/09/24 09:53:16;;;;;;;7.53;2.30;;;22.10;99.90;;;;;;5046293;28;20618;-81
2021/09/24 09:55:51;;;;;;;7.47;3.10;;;22.10;99.90;;;;;;5047109;28;20206;-80
2021/09/24 09:58:20;;;;;;;6.10;3.08;;;22.20;99.90;;;;;;5046040;28;20217;-79
2021/09/24 10:01:03;;;;;;;8.00;3.22;;;22.30;99.90;;;;;;5045841;28;20209;-82
2021/09/24 10:03:33;;;;;;;6.40;2.83;;;22.40;99.90;;;;;;5025579;28;20272;-83
2021/09/24 10:06:04;;;;;;;5.78;2.75;;;22.50;99.90;;;;;;5026525;28;20221;-83
2021/09/24 10:08:33;;;;;;;9.38;3.53;;;22.60;99.90;;;;;;5061009;28;20650;-83
2021/09/24 10:11:06;;;;;;;6.90;2.92;;;22.40;99.90;;;;;;5066452;28;20201;-82
2021/09/24 10:13:48;;;;;;;7.20;2.45;;;22.30;99.90;;;;;;5065629;28;20217;-84
2021/09/24 10:16:15;;;;;;;9.50;3.10;;;22.20;99.90;;;;;;5055920;28;20206;-82
2021/09/24 10:18:42;;;;;;;4.63;2.08;;;22.40;99.90;;;;;;5044831;28;20262;-84
2021/09/24 10:21:10;;;;;;;6.10;3.03;;;22.50;99.90;;;;;;5045441;28;20193;-81
2021/09/24 10:23:37;;;;;;;6.75;2.35;;;22.60;99.90;;;;;;5045847;28;20194;-87
2021/09/24 10:26:14;;;;;;;6.13;2.60;;;22.70;99.90;;;;;;5028431;28;20233;-83
2021/09/24 10:28:41;;;;;;;7.18;2.85;;;22.70;99.90;;;;;;5026224;28;20206;-81
2021/09/24 10:31:15;;;;;;;9.20;3.00;;;22.80;99.90;;;;;;5026994;28;20210;-84
2021/09/24 10:33:47;;;;;;;9.70;3.08;;;22.80;99.90;;;;;;5026721;28;20215;-83
2021/09/24 10:36:40;;;;;;;9.70;4.18;;;22.80;99.90;;;;;;5027210;28;20198;-81
2021/09/24 10:39:41;;;;;;;11.60;4.75;;;22.90;99.90;;;;;;5026032;28;20480;-84
2021/09/24 10:42:24;;;;;;;9.02;4.30;;;23.00;99.90;;;;;;5025886;28;20238;-83
2021/09/24 10:45:07;;;;;;;8.07;3.58;;;23.00;99.90;;;;;;5019403;28;20206;-82
2021/09/24 10:47:54;;;;;;;8.05;4.82;;;23.10;99.90;;;;;;5029663;28;20237;-83
2021/09/24 10:50:50;;;;;;;10.10;4.82;;;23.10;99.90;;;;;;5048441;28;20217;-82
2021/09/24 10:53:22;;;;;;;9.35;5.13;;;23.10;99.90;;;;;;5051293;28;20202;-87
2021/09/24 10:56:26;;;;;;;10.73;4.82;;;23.20;99.90;;;;;;5050532;28;20290;-87
2021/09/24 10:58:53;;;;;;;12.55;5.45;;;23.40;99.90;;;;;;5031208;28;20206;-86
2021/09/24 11:01:39;;;;;;;13.05;5.60;;;23.40;99.90;;;;;;5030699;28;20202;-86
2021/09/24 11:04:14;;;;;;;11.45;6.10;;;23.30;99.90;;;;;;5030167;28;20202;-84
2021/09/24 11:06:43;;;;;;;11.20;5.35;;;23.40;99.90;;;;;;5030083;28;20257;-84
2021/09/24 11:09:13;;;;;;;12.77;6.45;;;23.60;99.90;;;;;;5049028;23;20250;-83
2021/09/24 11:11:42;;;;;;;13.45;6.38;;;23.50;99.90;;;;;;5049793;28;20257;-85
2021/09/24 11:14:37;;;;;;;12.98;6.38;;;23.70;99.90;;;;;;5049810;28;20214;-87
2021/09/24 11:17:07;;;;;;;9.82;4.85;;;23.40;99.90;;;;;;5050157;28;20252;-86
2021/09/24 11:19:36;;;;;;;11.48;5.30;;;23.40;99.90;;;;;;5049277;28;21042;-81
2021/09/24 11:22:16;;;;;;;13.30;5.65;;;23.50;99.90;;;;;;5049832;28;20198;-81
2021/09/24 11:24:48;;;;;;;12.27;5.50;;;23.50;99.90;;;;;;5040248;28;20217;-85
2021/09/24 11:27:17;;;;;;;14.98;6.05;;;23.40;99.90;;;;;;5029132;28;20877;-82
2021/09/24 11:30:12;;;;;;;9.77;5.88;;;23.50;99.90;;;;;;5040561;28;20202;-82
2021/09/24 11:32:40;;;;;;;11.75;5.03;;;23.50;99.90;;;;;;5049922;28;20198;-83
2021/09/24 11:35:09;;;;;;;9.38;5.30;;;23.60;99.90;;;;;;5049661;28;20811;-83
2021/09/24 11:37:38;;;;;;;12.07;5.13;;;23.70;99.90;;;;;;5048773;28;20198;-82
2021/09/24 11:40:09;;;;;;;10.13;4.53;;;23.80;99.90;;;;;;5048597;28;20733;-85
2021/09/24 11:42:37;;;;;;;10.75;4.22;;;23.80;99.90;;;;;;5049212;28;20202;-81
2021/09/24 11:45:07;;;;;;;9.82;3.63;;;23.90;99.90;;;;;;5029569;28;20217;-82
2021/09/24 11:47:39;;;;;;;5.40;3.15;;;23.70;99.90;;;;;;5028555;28;20263;-83
2021/09/24 11:50:09;;;;;;;9.00;3.35;;;23.60;99.90;;;;;;5028679;28;20207;-84
2021/09/24 11:52:40;;;;;;;6.40;2.67;;;23.60;99.90;;;;;;5028749;28;20213;-86
2021/09/24 11:55:30;;;;;;;3.70;2.25;;;23.50;99.90;;;;;;5029227;28;20893;-80
2021/09/24 11:58:08;;;;;;;12.82;2.80;;;23.50;99.90;;;;;;5021994;28;20198;-79
2021/09/24 12:00:38;;;;;;;5.07;2.40;;;23.50;99.90;;;;;;5046890;28;20202;-82
2021/09/24 12:03:10;;;;;;;5.68;2.53;;;23.40;99.90;;;;;;5044286;28;20273;-80
2021/09/24 12:05:38;;;;;;;7.30;2.70;;;23.30;99.90;;;;;;5028310;28;20206;-82
2021/09/24 12:08:13;;;;;;;7.15;2.70;;;23.30;99.90;;;;;;5027950;28;20231;-86
2021/09/24 12:10:41;;;;;;;7.97;2.20;;;23.30;99.90;;;;;;5028165;28;20205;-84
2021/09/24 12:13:10;;;;;;;9.23;2.70;;;23.40;99.90;;;;;;5028045;28;20241;-84
2021/09/24 12:15:54;;;;;;;6.93;2.38;;;23.50;99.90;;;;;;5028061;28;20190;-87
2021/09/24 12:18:22;;;;;;;8.98;2.63;;;23.40;99.90;;;;;;5036086;28;20263;-82
2021/09/24 12:20:57;;;;;;;9.60;2.60;;;23.50;99.90;;;;;;5046693;28;20206;-82
2021/09/24 12:23:24;;;;;;;10.15;1.98;;;23.50;99.90;;;;;;5046482;28;20186;-84
2021/09/24 12:25:59;;;;;;;7.60;2.15;;;23.40;99.90;;;;;;5046727;28;20205;-84
2021/09/24 12:28:26;;;;;;;9.43;2.40;;;23.30;99.90;;;;;;5046117;28;20213;-81
2021/09/24 12:30:53;;;;;;;8.93;2.22;;;23.20;99.90;;;;;;5047613;28;20205;-87
2021/09/24 12:33:22;;;;;;;8.73;2.70;;;23.00;99.90;;;;;;5038452;28;20547;-87
2021/09/24 12:36:01;;;;;;;8.85;2.50;;;23.00;99.90;;;;;;5027704;28;20213;-82
2021/09/24 12:38:30;;;;;;;6.25;1.77;;;22.80;99.90;;;;;;5044178;28;20275;-83
2021/09/24 12:41:09;;;;;;;10.60;2.38;;;22.80;99.90;;;;;;5047070;28;20206;-85
2021/09/24 12:43:37;;;;;;;9.15;2.65;;;22.90;99.90;;;;;;5047276;28;20205;-82
2021/09/24 12:46:04;;;;;;;5.80;2.00;;;22.90;99.90;;;;;;5047068;28;20522;-83
2021/09/24 12:48:35;;;;;;;6.22;2.10;;;23.00;99.90;;;;;;5043156;28;20222;-83
2021/09/24 12:51:03;;;;;;;4.93;2.00;;;23.10;99.90;;;;;;5028598;28;20194;-84
2021/09/24 12:53:31;;;;;;;11.77;1.90;;;23.10;99.90;;;;;;5027692;28;20206;-81
2021/09/24 12:56:00;;;;;;;7.68;2.10;;;23.00;99.90;;;;;;5029161;28;20545;-81